createdAt,value
2019-05-30T00:02:04.468Z,99.90
2019-05-30T00:04:33.278Z,99.90
2019-05-30T00:07:21.244Z,99.90
2019-05-30T00:09:49.944Z,99.90
2019-05-30T00:12:18.640Z,99.90
2019-05-30T00:14:47.327Z,99.90
2019-05-30T00:17:16.031Z,99.90
2019-05-30T00:19:44.748Z,99.90
2019-05-30T00:22:13.756Z,99.90
2019-05-30T00:24:42.447Z,99.90
2019-05-30T00:27:11.206Z,99.90
2019-05-30T00:29:39.907Z,99.90
2019-05-30T00:32:08.599Z,99.90
2019-05-30T00:34:37.296Z,99.90
2019-05-30T00:37:06.171Z,99.90
2019-05-30T00:39:34.905Z,99.90
2019-05-30T00:42:04.227Z,99.90
2019-05-30T00:44:33.002Z,99.90
2019-05-30T00:47:02.438Z,99.90
2019-05-30T00:49:31.303Z,99.90
2019-05-30T00:52:00.533Z,99.90
2019-05-30T00:54:29.294Z,99.90
2019-05-30T00:56:58.600Z,99.90
2019-05-30T00:59:27.413Z,99.90
2019-05-30T01:01:56.622Z,99.90
2019-05-30T01:04:25.411Z,99.90
2019-05-30T01:06:54.092Z,99.90
2019-05-30T01:09:22.787Z,99.90
2019-05-30T01:11:51.494Z,99.90
2019-05-30T01:14:20.177Z,99.90
2019-05-30T01:16:48.871Z,99.90
2019-05-30T01:19:17.569Z,99.90
2019-05-30T01:21:46.315Z,99.90
2019-05-30T01:24:15.012Z,99.90
2019-05-30T01:26:43.700Z,99.90
2019-05-30T01:29:12.399Z,99.90
2019-05-30T01:31:41.320Z,99.90
2019-05-30T01:34:10.021Z,99.90
2019-05-30T01:36:38.709Z,99.90
2019-05-30T01:39:08.154Z,99.90
2019-05-30T01:41:37.002Z,99.90
2019-05-30T01:44:06.129Z,99.90
2019-05-30T01:46:34.892Z,99.90
2019-05-30T01:49:04.392Z,99.90
2019-05-30T01:51:33.187Z,99.90
2019-05-30T01:54:02.536Z,99.90
2019-05-30T01:56:31.283Z,99.90
2019-05-30T01:59:00.647Z,99.90
2019-05-30T02:01:29.386Z,99.90
2019-05-30T02:03:59.107Z,99.90
2019-05-30T02:06:27.896Z,99.90
2019-05-30T02:08:56.584Z,99.90
2019-05-30T02:11:25.291Z,99.90
2019-05-30T02:13:53.979Z,99.90
2019-05-30T02:16:22.779Z,99.90
2019-05-30T02:18:51.476Z,99.90
2019-05-30T02:21:20.171Z,99.90
2019-05-30T02:23:48.876Z,99.90
2019-05-30T02:26:17.563Z,99.90
2019-05-30T02:28:46.272Z,99.90
2019-05-30T02:31:14.961Z,99.90
2019-05-30T02:33:43.724Z,99.90
2019-05-30T02:36:12.796Z,99.90
2019-05-30T02:38:41.628Z,99.90
2019-05-30T02:41:12.256Z,99.90
2019-05-30T02:43:40.636Z,99.90
2019-05-30T02:46:10.647Z,99.90
2019-05-30T02:48:57.500Z,99.90
2019-05-30T02:51:10.833Z,99.90
2019-05-30T02:53:40.351Z,99.90
2019-05-30T02:56:10.273Z,99.90
2019-05-30T02:58:39.388Z,99.90
2019-05-30T03:01:09.191Z,99.90
2019-05-30T03:03:38.421Z,99.90
2019-05-30T03:06:09.202Z,99.90
2019-05-30T03:08:37.609Z,99.90
2019-05-30T03:11:07.844Z,99.90
2019-05-30T03:13:36.636Z,99.90
2019-05-30T03:16:07.384Z,99.90
2019-05-30T03:18:35.987Z,99.90
2019-05-30T03:21:05.740Z,99.90
2019-05-30T03:23:35.029Z,99.90
2019-05-30T03:26:04.820Z,99.90
2019-05-30T03:28:34.232Z,99.90
2019-05-30T03:31:10.259Z,99.90
2019-05-30T03:33:41.444Z,99.90
2019-05-30T03:36:15.481Z,99.90
2019-05-30T03:38:36.844Z,99.90
2019-05-30T03:41:07.503Z,99.90
2019-05-30T03:43:36.175Z,99.90
2019-05-30T03:46:08.726Z,99.90
2019-05-30T03:48:40.912Z,99.90
2019-05-30T03:51:13.471Z,99.90
2019-05-30T03:53:42.652Z,99.90
2019-05-30T03:56:17.213Z,99.90
2019-05-30T03:58:48.847Z,99.90
2019-05-30T04:01:47.266Z,99.90
2019-05-30T04:04:19.293Z,99.90
2019-05-30T04:06:51.265Z,99.90
2019-05-30T04:09:24.929Z,99.90
2019-05-30T04:12:03.701Z,99.90
2019-05-30T04:14:36.157Z,99.90
2019-05-30T04:17:04.881Z,99.90
2019-05-30T04:19:33.575Z,99.90
2019-05-30T04:22:02.603Z,99.90
2019-05-30T04:24:31.297Z,99.90
2019-05-30T04:26:59.991Z,99.90
2019-05-30T04:29:28.613Z,99.90
2019-05-30T04:31:57.306Z,99.90
2019-05-30T04:34:25.934Z,99.90
2019-05-30T04:36:54.629Z,99.90
2019-05-30T04:39:23.335Z,99.90
2019-05-30T04:41:52.028Z,99.90
2019-05-30T04:44:20.759Z,97.20
2019-05-30T04:46:49.456Z,93.40
2019-05-30T04:49:19.748Z,90.70
2019-05-30T04:51:48.500Z,85.70
2019-05-30T04:54:19.019Z,85.50
2019-05-30T04:56:47.648Z,82.00
2019-05-30T04:59:17.516Z,83.20
2019-05-30T05:01:46.698Z,82.70
2019-05-30T05:04:15.610Z,84.40
2019-05-30T05:06:44.400Z,80.50
2019-05-30T05:09:13.988Z,88.00
2019-05-30T05:11:42.967Z,84.10
2019-05-30T05:14:12.339Z,90.80
2019-05-30T05:16:41.070Z,92.60
2019-05-30T05:19:09.770Z,91.20
2019-05-30T05:21:38.459Z,85.50
2019-05-30T05:24:07.239Z,79.90
2019-05-30T05:26:35.940Z,89.50
2019-05-30T05:29:04.631Z,86.60
2019-05-30T05:31:33.339Z,77.20
2019-05-30T05:34:02.036Z,67.70
2019-05-30T05:36:30.739Z,64.40
2019-05-30T05:38:59.435Z,61.30
2019-05-30T05:41:28.606Z,60.60
2019-05-30T05:43:57.483Z,62.10
2019-05-30T05:46:26.175Z,65.80
2019-05-30T05:48:54.879Z,63.40
2019-05-30T05:51:24.712Z,68.80
2019-05-30T05:53:54.295Z,84.90
2019-05-30T05:56:22.975Z,94.80
2019-05-30T05:58:51.615Z,99.90
2019-05-30T06:01:21.425Z,99.60
2019-05-30T06:03:50.283Z,99.90
2019-05-30T06:06:19.217Z,99.90
2019-05-30T06:08:47.983Z,99.90
2019-05-30T06:11:16.722Z,99.90
2019-05-30T06:13:45.381Z,99.90
2019-05-30T06:16:14.080Z,99.50
2019-05-30T06:18:42.947Z,97.30
2019-05-30T06:21:11.639Z,96.10
2019-05-30T06:23:40.264Z,97.60
2019-05-30T06:26:08.965Z,94.20
2019-05-30T06:28:37.655Z,92.60
2019-05-30T06:31:06.359Z,92.20
2019-05-30T06:33:35.163Z,93.10
2019-05-30T06:36:03.967Z,91.00
2019-05-30T06:38:32.658Z,83.30
2019-05-30T06:41:01.364Z,85.90
2019-05-30T06:43:30.341Z,85.30
2019-05-30T06:45:59.161Z,85.00
2019-05-30T06:48:28.786Z,85.10
2019-05-30T06:50:57.567Z,93.50
2019-05-30T06:53:27.255Z,92.40
2019-05-30T06:55:56.161Z,82.50
2019-05-30T06:58:41.385Z,85.00
2019-05-30T07:00:55.211Z,81.90
2019-05-30T07:03:24.291Z,73.90
2019-05-30T07:05:53.488Z,75.30
2019-05-30T07:08:22.698Z,67.60
2019-05-30T07:10:51.515Z,70.60
2019-05-30T07:13:20.213Z,66.40
2019-05-30T07:15:48.908Z,66.00
2019-05-30T07:18:17.610Z,68.60
2019-05-30T07:20:46.299Z,68.40
2019-05-30T07:23:15.003Z,67.10
2019-05-30T07:25:43.695Z,68.30
2019-05-30T07:28:13.047Z,67.20
2019-05-30T07:30:41.747Z,69.00
2019-05-30T07:33:10.449Z,70.10
2019-05-30T07:35:39.149Z,72.00
2019-05-30T07:38:07.847Z,69.60
2019-05-30T07:40:36.676Z,71.90
2019-05-30T07:43:05.368Z,77.50
2019-05-30T07:45:35.098Z,73.40
2019-05-30T07:48:04.172Z,75.80
2019-05-30T07:50:32.867Z,67.60
2019-05-30T07:53:01.572Z,65.10
2019-05-30T07:55:30.974Z,66.00
2019-05-30T07:57:59.759Z,69.40
2019-05-30T08:00:29.307Z,64.90
2019-05-30T08:02:58.064Z,64.70
2019-05-30T08:05:26.827Z,62.10
2019-05-30T08:07:55.551Z,64.10
2019-05-30T08:10:24.344Z,57.20
2019-05-30T08:12:53.048Z,57.90
2019-05-30T08:15:21.978Z,59.00
2019-05-30T08:17:50.655Z,58.50
2019-05-30T08:20:19.350Z,58.90
2019-05-30T08:22:47.985Z,59.20
2019-05-30T08:25:16.831Z,60.00
2019-05-30T08:27:45.487Z,56.20
2019-05-30T08:30:15.496Z,56.70
2019-05-30T08:32:44.189Z,55.60
2019-05-30T08:35:13.191Z,57.60
2019-05-30T08:37:41.887Z,55.90
2019-05-30T08:40:12.187Z,56.90
2019-05-30T08:42:40.887Z,57.00
2019-05-30T08:45:10.309Z,53.00
2019-05-30T08:47:40.398Z,53.90
2019-05-30T08:50:09.988Z,54.60
2019-05-30T08:52:38.777Z,54.80
2019-05-30T08:55:09.090Z,54.20
2019-05-30T08:57:38.696Z,54.40
2019-05-30T09:00:09.009Z,54.20
2019-05-30T09:02:38.758Z,55.60
2019-05-30T09:05:09.511Z,56.50
2019-05-30T09:07:38.384Z,56.50
2019-05-30T09:10:09.615Z,57.30
2019-05-30T09:12:40.417Z,57.80
2019-05-30T09:15:11.740Z,58.00
2019-05-30T09:17:42.303Z,58.30
2019-05-30T09:20:30.944Z,57.10
2019-05-30T09:22:59.788Z,56.10
2019-05-30T09:25:28.583Z,56.60
2019-05-30T09:27:57.294Z,56.30
2019-05-30T09:30:26.088Z,55.10
2019-05-30T09:32:54.791Z,57.30
2019-05-30T09:35:23.688Z,54.30
2019-05-30T09:37:52.384Z,54.70
2019-05-30T09:40:21.496Z,53.60
2019-05-30T09:42:50.457Z,51.90
2019-05-30T09:45:20.084Z,52.90
2019-05-30T09:47:49.386Z,52.10
2019-05-30T09:50:19.125Z,53.90
2019-05-30T09:52:49.148Z,54.60
2019-05-30T09:55:18.634Z,53.40
2019-05-30T09:57:47.613Z,53.00
2019-05-30T10:00:21.083Z,55.40
2019-05-30T10:02:50.542Z,54.80
2019-05-30T10:05:23.327Z,54.40
2019-05-30T10:07:50.828Z,54.90
2019-05-30T10:10:19.747Z,56.00
2019-05-30T10:12:48.630Z,56.00
2019-05-30T10:15:17.759Z,55.80
2019-05-30T10:17:47.725Z,54.80
2019-05-30T10:20:17.507Z,55.50
2019-05-30T10:22:47.069Z,56.10
2019-05-30T10:25:16.771Z,55.50
2019-05-30T10:27:46.860Z,56.00
2019-05-30T10:30:17.767Z,55.80
2019-05-30T10:32:47.365Z,55.80
2019-05-30T10:35:17.112Z,56.30
2019-05-30T10:37:47.134Z,56.50
2019-05-30T10:40:16.521Z,57.20
2019-05-30T10:42:46.218Z,55.80
2019-05-30T10:45:15.989Z,56.00
2019-05-30T10:47:45.853Z,57.30
2019-05-30T10:50:15.679Z,56.80
2019-05-30T10:52:45.330Z,55.80
2019-05-30T10:55:15.832Z,56.10
2019-05-30T10:57:46.625Z,56.70
2019-05-30T11:00:17.732Z,56.30
2019-05-30T11:02:47.862Z,54.30
2019-05-30T11:05:18.482Z,55.10
2019-05-30T11:08:08.308Z,58.00
2019-05-30T11:10:41.818Z,55.90
2019-05-30T11:13:13.583Z,55.20
2019-05-30T11:15:42.417Z,55.20
2019-05-30T11:18:11.696Z,55.20
2019-05-30T11:20:40.493Z,55.20
2019-05-30T11:23:09.189Z,54.80
2019-05-30T11:25:37.896Z,56.10
2019-05-30T11:28:07.899Z,53.60
2019-05-30T11:30:36.686Z,54.40
2019-05-30T11:33:06.093Z,54.40
2019-05-30T11:35:35.556Z,54.80
2019-05-30T11:38:04.664Z,54.10
2019-05-30T11:40:33.532Z,54.00
2019-05-30T11:43:02.224Z,55.00
2019-05-30T11:45:30.933Z,55.30
2019-05-30T11:48:00.059Z,53.50
2019-05-30T11:50:30.360Z,53.80
2019-05-30T11:53:00.177Z,53.90
2019-05-30T11:55:28.949Z,54.80
2019-05-30T11:57:58.350Z,54.80
2019-05-30T12:00:27.507Z,54.30
2019-05-30T12:02:56.522Z,54.50
2019-05-30T12:05:25.799Z,53.40
2019-05-30T12:07:54.841Z,52.90
2019-05-30T12:10:24.197Z,53.00
2019-05-30T12:12:53.242Z,53.20
2019-05-30T12:15:22.525Z,53.50
2019-05-30T12:17:51.272Z,53.60
2019-05-30T12:20:20.018Z,54.20
2019-05-30T12:22:48.766Z,55.30
2019-05-30T12:25:17.758Z,55.30
2019-05-30T12:27:46.455Z,55.10
2019-05-30T12:30:15.741Z,55.30
2019-05-30T12:32:44.531Z,55.70
2019-05-30T12:35:13.527Z,54.60
2019-05-30T12:37:54.039Z,54.10
2019-05-30T12:40:13.981Z,53.80
2019-05-30T12:42:42.671Z,53.40
2019-05-30T12:45:13.680Z,53.50
2019-05-30T12:47:42.379Z,53.80
2019-05-30T12:50:12.283Z,54.50
2019-05-30T12:52:40.980Z,55.30
2019-05-30T12:55:11.183Z,55.90
2019-05-30T12:57:39.895Z,56.00
2019-05-30T13:00:18.130Z,56.00
2019-05-30T13:02:41.334Z,55.70
2019-05-30T13:05:10.391Z,56.50
2019-05-30T13:07:39.096Z,56.50
2019-05-30T13:10:10.877Z,57.10
2019-05-30T13:12:39.583Z,57.70
2019-05-30T13:15:08.988Z,57.40
2019-05-30T13:17:37.749Z,57.20
2019-05-30T13:20:07.751Z,58.10
2019-05-30T13:22:36.596Z,58.10
2019-05-30T13:25:07.254Z,59.30
2019-05-30T13:27:35.959Z,59.30
2019-05-30T13:30:07.699Z,60.40
2019-05-30T13:32:36.419Z,60.00
2019-05-30T13:35:07.633Z,61.10
2019-05-30T13:37:36.438Z,62.10
2019-05-30T13:40:23.739Z,60.30
2019-05-30T13:42:37.265Z,59.90
2019-05-30T13:45:08.326Z,60.70
2019-05-30T13:47:37.561Z,59.40
2019-05-30T13:50:12.703Z,59.30
2019-05-30T13:52:38.200Z,59.70
2019-05-30T13:55:08.468Z,59.90
2019-05-30T13:57:38.265Z,60.70
2019-05-30T14:00:08.112Z,59.40
2019-05-30T14:02:36.823Z,60.30
2019-05-30T14:05:08.194Z,60.10
2019-05-30T14:07:37.227Z,61.50
2019-05-30T14:10:06.851Z,59.90
2019-05-30T14:12:35.546Z,62.20
2019-05-30T14:15:09.985Z,60.70
2019-05-30T14:17:37.467Z,60.80
2019-05-30T14:20:07.159Z,59.70
2019-05-30T14:22:35.859Z,59.80
2019-05-30T14:25:07.417Z,60.50
2019-05-30T14:27:36.235Z,62.70
2019-05-30T14:30:09.177Z,60.70
2019-05-30T14:32:38.008Z,62.20
2019-05-30T14:35:08.575Z,62.00
2019-05-30T14:37:37.315Z,62.80
2019-05-30T14:40:11.404Z,63.00
2019-05-30T14:42:40.208Z,62.80
2019-05-30T14:45:10.809Z,63.20
2019-05-30T14:47:39.682Z,63.80
2019-05-30T14:50:10.945Z,63.70
2019-05-30T14:52:39.877Z,65.70
2019-05-30T14:55:09.180Z,66.60
2019-05-30T14:57:38.179Z,67.30
2019-05-30T15:00:13.490Z,69.30
2019-05-30T15:02:42.843Z,78.40
2019-05-30T15:05:13.778Z,87.50
2019-05-30T15:07:42.740Z,91.60
2019-05-30T15:10:12.789Z,90.20
2019-05-30T15:12:41.545Z,90.20
2019-05-30T15:15:13.204Z,87.90
2019-05-30T15:17:41.117Z,90.30
2019-05-30T15:20:10.637Z,86.20
2019-05-30T15:22:40.475Z,84.40
2019-05-30T15:25:09.899Z,83.80
2019-05-30T15:27:39.141Z,82.40
2019-05-30T15:30:10.579Z,84.40
2019-05-30T15:32:39.384Z,85.90
2019-05-30T15:35:08.924Z,86.70
2019-05-30T15:37:40.632Z,84.40
2019-05-30T15:40:10.951Z,84.80
2019-05-30T15:42:39.732Z,87.10
2019-05-30T15:45:09.941Z,86.90
2019-05-30T15:47:38.899Z,83.30
2019-05-30T15:50:10.514Z,86.30
2019-05-30T15:52:39.534Z,86.30
2019-05-30T15:55:09.254Z,87.50
2019-05-30T15:57:38.041Z,90.40
2019-05-30T16:00:12.086Z,91.50
2019-05-30T16:02:41.336Z,92.70
2019-05-30T16:05:10.689Z,95.20
2019-05-30T16:07:39.407Z,97.30
2019-05-30T16:10:08.609Z,97.90
2019-05-30T16:12:37.314Z,99.60
2019-05-30T16:15:09.532Z,99.90
2019-05-30T16:17:38.225Z,99.90
2019-05-30T16:20:07.732Z,99.90
2019-05-30T16:22:36.431Z,99.90
2019-05-30T16:25:07.439Z,99.90
2019-05-30T16:27:36.341Z,99.90
2019-05-30T16:30:07.191Z,99.90
2019-05-30T16:32:36.020Z,99.90
2019-05-30T16:35:05.924Z,99.90
2019-05-30T16:37:34.623Z,99.90
2019-05-30T16:40:06.894Z,99.90
2019-05-30T16:42:35.537Z,99.90
2019-05-30T16:45:08.870Z,99.90
2019-05-30T16:47:37.844Z,99.90
2019-05-30T16:50:10.018Z,99.90
2019-05-30T16:52:38.719Z,99.90
2019-05-30T16:55:09.123Z,99.90
2019-05-30T16:57:38.025Z,99.90
2019-05-30T17:00:09.183Z,99.90
2019-05-30T17:02:37.987Z,99.90
2019-05-30T17:05:07.787Z,99.90
2019-05-30T17:07:36.649Z,99.90
2019-05-30T17:10:21.589Z,99.90
2019-05-30T17:12:36.792Z,99.90
2019-05-30T17:15:07.701Z,99.90
2019-05-30T17:17:36.396Z,99.90
2019-05-30T17:20:07.181Z,99.90
2019-05-30T17:22:35.887Z,99.90
2019-05-30T17:25:09.172Z,99.90
2019-05-30T17:27:37.871Z,99.90
2019-05-30T17:30:09.524Z,99.90
2019-05-30T17:32:38.223Z,99.90
2019-05-30T17:35:08.627Z,99.90
2019-05-30T17:37:37.334Z,99.90
2019-05-30T17:40:07.143Z,99.90
2019-05-30T17:42:35.950Z,99.90
2019-05-30T17:45:07.115Z,99.90
2019-05-30T17:47:35.820Z,99.90
2019-05-30T17:50:06.885Z,99.90
2019-05-30T17:52:35.629Z,99.90
2019-05-30T17:55:08.887Z,99.90
2019-05-30T17:57:37.600Z,99.90
2019-05-30T18:00:09.431Z,99.90
2019-05-30T18:02:38.160Z,99.90
2019-05-30T18:05:08.555Z,99.90
2019-05-30T18:07:37.253Z,99.90
2019-05-30T18:10:09.383Z,99.90
2019-05-30T18:12:38.084Z,99.90
2019-05-30T18:15:09.154Z,99.90
2019-05-30T18:17:37.847Z,99.90
2019-05-30T18:20:08.162Z,99.90
2019-05-30T18:22:36.853Z,99.90
2019-05-30T18:25:07.823Z,99.90
2019-05-30T18:27:36.586Z,99.90
2019-05-30T18:30:09.247Z,99.90
2019-05-30T18:32:37.946Z,99.90
2019-05-30T18:35:07.805Z,99.90
2019-05-30T18:37:37.702Z,99.90
2019-05-30T18:40:09.947Z,99.90
2019-05-30T18:42:38.659Z,99.90
2019-05-30T18:45:09.647Z,99.90
2019-05-30T18:47:38.450Z,99.90
2019-05-30T18:50:08.543Z,99.90
2019-05-30T18:52:37.243Z,99.90
2019-05-30T18:55:07.607Z,99.90
2019-05-30T18:57:37.338Z,99.90
2019-05-30T19:00:10.278Z,99.90
2019-05-30T19:02:39.831Z,99.90
2019-05-30T19:05:09.023Z,99.90
2019-05-30T19:07:37.726Z,99.90
2019-05-30T19:10:06.925Z,99.90
2019-05-30T19:12:36.552Z,99.90
2019-05-30T19:15:06.627Z,99.90
2019-05-30T19:17:36.013Z,99.90
2019-05-30T19:20:06.651Z,99.90
2019-05-30T19:22:36.401Z,99.90
2019-05-30T19:25:08.122Z,99.90
2019-05-30T19:27:38.517Z,99.90
2019-05-30T19:30:11.488Z,99.90
2019-05-30T19:32:40.184Z,99.90
2019-05-30T19:35:10.579Z,99.90
2019-05-30T19:37:39.287Z,99.90
2019-05-30T19:40:10.679Z,99.90
2019-05-30T19:42:39.395Z,99.90
2019-05-30T19:45:10.273Z,99.90
2019-05-30T19:47:38.997Z,99.90
2019-05-30T19:50:08.818Z,99.90
2019-05-30T19:52:38.926Z,99.90
2019-05-30T19:55:08.159Z,99.90
2019-05-30T19:57:37.831Z,99.90
2019-05-30T20:00:08.438Z,99.90
2019-05-30T20:02:38.261Z,99.90
2019-05-30T20:05:07.831Z,99.90
2019-05-30T20:07:36.908Z,99.90
2019-05-30T20:10:10.335Z,99.90
2019-05-30T20:12:39.135Z,99.90
2019-05-30T20:15:09.783Z,99.90
2019-05-30T20:17:39.640Z,99.90
2019-05-30T20:20:09.147Z,99.90
2019-05-30T20:22:38.229Z,99.90
2019-05-30T20:25:08.391Z,99.90
2019-05-30T20:27:37.104Z,99.90
2019-05-30T20:30:09.815Z,99.90
2019-05-30T20:32:38.882Z,99.90
2019-05-30T20:35:08.013Z,99.90
2019-05-30T20:37:36.905Z,99.90
2019-05-30T20:40:09.896Z,99.90
2019-05-30T20:42:38.994Z,99.90
2019-05-30T20:45:10.121Z,99.90
2019-05-30T20:47:40.230Z,99.90
2019-05-30T20:50:10.991Z,99.90
2019-05-30T20:52:43.129Z,99.90
2019-05-30T20:55:10.652Z,99.90
2019-05-30T20:57:40.322Z,99.90
2019-05-30T21:00:10.655Z,99.90
2019-05-30T21:02:39.383Z,99.90
2019-05-30T21:05:08.591Z,99.90
2019-05-30T21:07:37.836Z,99.90
2019-05-30T21:10:07.691Z,99.90
2019-05-30T21:12:41.099Z,99.90
2019-05-30T21:15:08.240Z,99.90
2019-05-30T21:17:37.783Z,99.90
2019-05-30T21:20:11.109Z,99.90
2019-05-30T21:22:38.294Z,99.90
2019-05-30T21:25:10.159Z,99.90
2019-05-30T21:27:39.139Z,99.90
2019-05-30T21:30:08.437Z,99.90
2019-05-30T21:32:37.654Z,99.90
2019-05-30T21:35:10.172Z,99.90
2019-05-30T21:37:39.677Z,99.90
2019-05-30T21:40:10.356Z,99.90
2019-05-30T21:42:56.710Z,99.90
2019-05-30T21:45:09.617Z,99.90
2019-05-30T21:47:38.698Z,99.90
2019-05-30T21:50:09.023Z,99.90
2019-05-30T21:52:37.803Z,99.90
2019-05-30T21:55:06.908Z,99.90
2019-05-30T21:57:35.614Z,99.90
2019-05-30T22:00:07.241Z,99.90
2019-05-30T22:02:35.944Z,99.90
2019-05-30T22:05:05.842Z,99.90
2019-05-30T22:07:34.540Z,99.90
2019-05-30T22:10:03.444Z,99.90
2019-05-30T22:12:32.144Z,99.90
2019-05-30T22:15:00.836Z,99.90
2019-05-30T22:17:29.571Z,99.90
2019-05-30T22:19:58.263Z,99.90
2019-05-30T22:22:26.955Z,99.90
2019-05-30T22:24:55.660Z,99.90
2019-05-30T22:27:24.355Z,99.90
2019-05-30T22:29:53.057Z,99.90
2019-05-30T22:32:21.748Z,99.90
2019-05-30T22:34:50.879Z,99.90
2019-05-30T22:37:19.574Z,99.90
2019-05-30T22:39:48.913Z,99.90
2019-05-30T22:42:17.683Z,99.90
2019-05-30T22:44:46.389Z,99.90
2019-05-30T22:47:15.087Z,99.90
2019-05-30T22:49:44.656Z,99.90
2019-05-30T22:52:13.315Z,99.90
2019-05-30T22:54:42.203Z,99.90
2019-05-30T22:57:10.909Z,99.90
2019-05-30T22:59:39.527Z,99.90
2019-05-30T23:02:08.231Z,99.90
2019-05-30T23:04:36.920Z,99.90
2019-05-30T23:07:05.840Z,99.90
2019-05-30T23:09:34.535Z,99.90
2019-05-30T23:12:03.227Z,99.90
2019-05-30T23:14:31.957Z,99.90
2019-05-30T23:17:00.651Z,99.90
2019-05-30T23:19:48.685Z,99.90
2019-05-30T23:22:17.320Z,99.90
2019-05-30T23:24:47.076Z,99.90
2019-05-30T23:27:15.923Z,99.90
2019-05-30T23:29:44.623Z,99.90
2019-05-30T23:32:13.324Z,99.90
2019-05-30T23:34:42.023Z,99.90
2019-05-30T23:37:10.717Z,99.90
2019-05-30T23:39:39.340Z,99.90
2019-05-30T23:42:08.047Z,99.90
2019-05-30T23:44:36.747Z,99.90
2019-05-30T23:47:05.478Z,99.90
2019-05-30T23:49:34.115Z,99.90
2019-05-30T23:52:02.751Z,99.90
2019-05-30T23:54:31.495Z,99.90
2019-05-30T23:57:00.798Z,99.90
2019-05-30T23:59:29.597Z,99.90
